createdAt,value
2022-09-15T00:01:14.364Z,20.40
2022-09-15T00:03:42.767Z,20.33
2022-09-15T00:06:11.105Z,20.77
2022-09-15T00:08:39.708Z,21.42
2022-09-15T00:11:19.380Z,23.80
2022-09-15T00:13:47.603Z,19.13
2022-09-15T00:16:16.634Z,20.80
2022-09-15T00:18:46.187Z,21.35
2022-09-15T00:21:18.659Z,20.00
2022-09-15T00:23:47.456Z,21.95
2022-09-15T00:26:19.989Z,19.77
2022-09-15T00:28:48.488Z,19.38
2022-09-15T00:31:20.206Z,23.45
2022-09-15T00:33:50.167Z,24.92
2022-09-15T00:36:19.541Z,20.80
2022-09-15T00:38:47.490Z,25.10
2022-09-15T00:41:17.913Z,21.05
2022-09-15T00:44:01.584Z,22.83
2022-09-15T00:46:41.091Z,23.85
2022-09-15T00:49:36.817Z,18.88
2022-09-15T00:52:42.041Z,21.60
2022-09-15T00:55:22.543Z,19.27
2022-09-15T00:57:59.044Z,25.23
2022-09-15T01:00:28.361Z,24.75
2022-09-15T01:02:57.333Z,21.50
2022-09-15T01:05:34.288Z,22.15
2022-09-15T01:08:17.486Z,21.70
2022-09-15T01:10:46.693Z,19.30
2022-09-15T01:13:15.150Z,22.45
2022-09-15T01:16:10.307Z,25.48
2022-09-15T01:19:01.892Z,24.48
2022-09-15T01:22:28.049Z,24.55
2022-09-15T01:25:43.485Z,24.73
2022-09-15T01:29:10.517Z,24.63
2022-09-15T01:32:14.177Z,26.15
2022-09-15T01:34:55.285Z,24.38
2022-09-15T01:37:34.243Z,24.70
2022-09-15T01:40:04.258Z,21.65
2022-09-15T01:42:34.803Z,28.55
2022-09-15T01:45:09.353Z,26.15
2022-09-15T01:47:37.652Z,24.42
2022-09-15T01:50:17.620Z,25.17
2022-09-15T01:52:50.065Z,25.45
2022-09-15T01:55:25.222Z,26.33
2022-09-15T01:57:52.688Z,25.95
2022-09-15T02:00:20.419Z,24.83
2022-09-15T02:03:00.213Z,26.33
2022-09-15T02:06:01.895Z,27.90
2022-09-15T02:08:49.794Z,22.77
2022-09-15T02:11:21.447Z,25.58
2022-09-15T02:14:17.214Z,24.98
2022-09-15T02:16:50.048Z,23.55
2022-09-15T02:19:55.315Z,23.45
2022-09-15T02:22:31.008Z,23.33
2022-09-15T02:25:09.850Z,22.23
2022-09-15T02:27:49.520Z,21.42
2022-09-15T02:30:19.914Z,24.42
2022-09-15T02:32:56.196Z,23.88
2022-09-15T02:35:28.647Z,21.52
2022-09-15T02:37:57.236Z,19.33
2022-09-15T02:40:24.937Z,21.50
2022-09-15T02:43:00.980Z,20.73
2022-09-15T02:45:31.002Z,22.83
2022-09-15T02:47:59.181Z,21.52
2022-09-15T02:50:26.940Z,20.92
2022-09-15T02:52:55.842Z,19.65
2022-09-15T02:55:27.175Z,19.73
2022-09-15T02:57:58.631Z,23.25
2022-09-15T03:00:28.363Z,18.45
2022-09-15T03:02:56.392Z,21.38
2022-09-15T03:05:29.834Z,20.02
2022-09-15T03:07:57.505Z,21.08
2022-09-15T03:10:26.454Z,21.15
2022-09-15T03:12:55.016Z,23.42
2022-09-15T03:15:25.543Z,24.17
2022-09-15T03:17:54.618Z,23.38
2022-09-15T03:20:28.126Z,18.85
2022-09-15T03:22:55.996Z,20.88
2022-09-15T03:25:23.555Z,21.33
2022-09-15T03:27:50.889Z,22.45
2022-09-15T03:30:18.799Z,20.95
2022-09-15T03:32:46.159Z,20.55
2022-09-15T03:35:13.517Z,20.20
2022-09-15T03:37:40.920Z,23.60
2022-09-15T03:40:10.633Z,22.25
2022-09-15T03:42:38.161Z,19.80
2022-09-15T03:45:06.010Z,20.52
2022-09-15T03:47:33.376Z,21.45
2022-09-15T03:50:00.699Z,22.80
2022-09-15T03:52:31.900Z,20.88
2022-09-15T03:54:59.348Z,24.23
2022-09-15T03:57:26.688Z,19.60
2022-09-15T03:59:54.031Z,21.25
2022-09-15T04:02:21.578Z,19.30
2022-09-15T04:04:49.456Z,19.63
2022-09-15T04:07:16.824Z,20.98
2022-09-15T04:09:44.194Z,22.23
2022-09-15T04:12:11.590Z,22.65
2022-09-15T04:14:38.924Z,17.63
2022-09-15T04:17:06.342Z,15.90
2022-09-15T04:19:33.684Z,18.30
2022-09-15T04:22:01.053Z,19.15
2022-09-15T04:24:28.527Z,20.20
2022-09-15T04:26:55.959Z,20.15
2022-09-15T04:29:23.332Z,18.33
2022-09-15T04:31:52.893Z,17.10
2022-09-15T04:34:20.269Z,18.70
2022-09-15T04:36:47.658Z,17.92
2022-09-15T04:39:15.001Z,18.83
2022-09-15T04:41:42.565Z,18.92
2022-09-15T04:44:09.962Z,17.98
2022-09-15T04:46:37.444Z,19.75
2022-09-15T04:49:04.835Z,21.70
2022-09-15T04:51:32.227Z,21.98
2022-09-15T04:53:59.560Z,16.90
2022-09-15T04:56:27.759Z,18.63
2022-09-15T04:59:03.527Z,16.65
2022-09-15T05:01:35.230Z,16.30
2022-09-15T05:04:04.499Z,18.02
2022-09-15T05:06:33.442Z,18.92
2022-09-15T05:09:01.353Z,15.30
2022-09-15T05:11:30.856Z,19.83
2022-09-15T05:13:59.738Z,19.25
2022-09-15T05:16:29.548Z,15.90
2022-09-15T05:19:00.849Z,15.23
2022-09-15T05:21:28.917Z,19.92
2022-09-15T05:23:56.784Z,19.23
2022-09-15T05:26:29.066Z,17.98
2022-09-15T05:28:57.912Z,21.48
2022-09-15T05:31:30.662Z,20.05
2022-09-15T05:34:02.247Z,20.90
2022-09-15T05:36:30.336Z,21.52
2022-09-15T05:38:58.439Z,18.67
2022-09-15T05:41:28.284Z,17.17
2022-09-15T05:43:57.729Z,20.25
2022-09-15T05:46:26.679Z,19.35
2022-09-15T05:48:57.666Z,16.80
2022-09-15T05:51:25.348Z,22.33
2022-09-15T05:53:52.889Z,18.92
2022-09-15T05:56:20.593Z,19.67
2022-09-15T05:58:49.208Z,19.58
2022-09-15T06:01:23.730Z,16.42
2022-09-15T06:03:51.873Z,17.92
2022-09-15T06:06:20.196Z,17.77
2022-09-15T06:08:55.613Z,15.95
2022-09-15T06:11:28.806Z,19.63
2022-09-15T06:14:00.535Z,17.88
2022-09-15T06:16:32.046Z,20.42
2022-09-15T06:21:31.158Z,17.90
2022-09-15T06:24:03.224Z,17.65
2022-09-15T06:26:30.864Z,19.75
2022-09-15T06:29:04.871Z,16.13
2022-09-15T06:31:33.786Z,17.85
2022-09-15T06:34:03.910Z,17.08
2022-09-15T06:36:32.221Z,16.45
2022-09-15T06:39:00.026Z,18.60
2022-09-15T06:41:35.332Z,20.20
2022-09-15T06:44:14.900Z,18.13
2022-09-15T06:46:42.278Z,19.17
2022-09-15T06:49:10.049Z,20.33
2022-09-15T06:51:37.422Z,17.98
2022-09-15T06:54:06.062Z,18.10
2022-09-15T06:56:37.898Z,18.90
2022-09-15T06:59:06.085Z,20.33
2022-09-15T07:01:34.048Z,17.42
2022-09-15T07:04:06.079Z,18.25
2022-09-15T07:06:34.087Z,17.58
2022-09-15T07:09:04.496Z,14.75
2022-09-15T07:11:33.090Z,14.80
2022-09-15T07:14:00.417Z,18.13
2022-09-15T07:16:27.897Z,15.45
2022-09-15T07:18:57.141Z,17.67
2022-09-15T07:21:24.674Z,13.02
2022-09-15T07:23:52.436Z,14.77
2022-09-15T07:26:27.569Z,11.82
2022-09-15T07:29:01.672Z,15.73
2022-09-15T07:31:32.851Z,13.00
2022-09-15T07:34:01.209Z,13.93
2022-09-15T07:36:30.251Z,12.63
2022-09-15T07:38:58.432Z,11.68
2022-09-15T07:41:31.076Z,12.80
2022-09-15T07:44:00.489Z,13.90
2022-09-15T07:46:32.382Z,11.65
2022-09-15T07:49:00.806Z,10.70
2022-09-15T07:51:28.408Z,10.02
2022-09-15T07:53:56.360Z,10.23
2022-09-15T07:56:24.482Z,10.77
2022-09-15T07:58:52.173Z,8.73
2022-09-15T08:01:22.421Z,11.02
2022-09-15T08:03:52.325Z,13.82
2022-09-15T08:06:23.611Z,9.52
2022-09-15T08:08:55.044Z,11.60
2022-09-15T08:11:23.881Z,11.52
2022-09-15T08:13:52.386Z,7.55
2022-09-15T08:16:23.447Z,16.52
2022-09-15T08:18:54.329Z,10.75
2022-09-15T08:21:23.624Z,9.93
2022-09-15T08:23:59.769Z,11.25
2022-09-15T08:26:29.008Z,11.85
2022-09-15T08:28:57.728Z,17.50
2022-09-15T08:31:25.522Z,10.60
2022-09-15T08:33:55.424Z,10.90
2022-09-15T08:36:27.404Z,13.77
2022-09-15T08:38:55.247Z,12.82
2022-09-15T08:41:34.045Z,14.55
2022-09-15T08:44:25.396Z,14.05
2022-09-15T08:47:16.212Z,9.63
2022-09-15T08:50:10.144Z,11.13
2022-09-15T08:52:53.848Z,8.68
2022-09-15T08:55:48.074Z,12.43
2022-09-15T08:58:24.047Z,12.25
2022-09-15T09:01:31.921Z,12.68
2022-09-15T09:04:25.610Z,11.68
2022-09-15T09:07:18.862Z,8.27
2022-09-15T09:09:59.320Z,12.32
2022-09-15T09:13:16.835Z,11.68
2022-09-15T09:15:59.004Z,15.63
2022-09-15T09:18:54.465Z,11.38
2022-09-15T09:21:33.648Z,13.27
2022-09-15T09:24:32.138Z,11.05
2022-09-15T09:26:59.572Z,8.15
2022-09-15T09:29:39.513Z,12.20
2022-09-15T09:32:22.235Z,9.80
2022-09-15T09:35:08.914Z,13.02
2022-09-15T09:37:36.294Z,9.40
2022-09-15T09:40:04.406Z,12.13
2022-09-15T09:42:37.095Z,9.90
2022-09-15T09:45:06.298Z,11.95
2022-09-15T09:47:36.339Z,9.52
2022-09-15T09:50:03.965Z,11.27
2022-09-15T09:52:39.368Z,8.15
2022-09-15T09:55:18.578Z,9.38
2022-09-15T09:57:45.981Z,11.48
2022-09-15T10:00:33.604Z,10.48
2022-09-15T10:03:17.484Z,9.40
2022-09-15T10:06:04.489Z,10.30
2022-09-15T10:08:31.976Z,9.00
2022-09-15T10:11:10.182Z,9.93
2022-09-15T10:13:53.430Z,8.43
2022-09-15T10:16:22.485Z,12.13
2022-09-15T10:18:54.295Z,9.75
2022-09-15T10:21:25.182Z,9.25
2022-09-15T10:23:52.671Z,9.87
2022-09-15T10:26:33.518Z,12.77
2022-09-15T10:29:16.121Z,11.90
2022-09-15T10:31:45.564Z,9.73
2022-09-15T10:34:33.285Z,12.13
2022-09-15T10:37:29.528Z,12.60
2022-09-15T10:40:00.942Z,13.10
2022-09-15T10:43:01.236Z,9.32
2022-09-15T10:45:49.275Z,12.00
2022-09-15T10:48:43.979Z,14.07
2022-09-15T10:52:32.467Z,10.57
2022-09-15T10:55:56.556Z,4.00
2022-09-15T10:58:56.693Z,5.85
2022-09-15T11:01:30.196Z,8.02
2022-09-15T11:04:06.576Z,5.95
2022-09-15T11:07:07.222Z,6.28
2022-09-15T11:09:50.928Z,6.72
2022-09-15T11:12:36.572Z,6.20
2022-09-15T11:16:06.402Z,8.77
2022-09-15T11:18:45.390Z,5.28
2022-09-15T11:21:24.796Z,4.97
2022-09-15T11:24:23.314Z,7.38
2022-09-15T11:27:04.968Z,5.25
2022-09-15T11:32:52.903Z,6.55
2022-09-15T11:35:54.464Z,6.47
2022-09-15T11:38:35.633Z,7.88
2022-09-15T11:41:17.604Z,4.82
2022-09-15T11:44:16.188Z,6.78
2022-09-15T11:47:05.176Z,9.10
2022-09-15T11:50:06.138Z,7.80
2022-09-15T11:53:00.887Z,5.63
2022-09-15T11:55:42.007Z,7.18
2022-09-15T11:58:09.584Z,7.45
2022-09-15T12:00:51.226Z,6.65
2022-09-15T12:06:29.704Z,6.65
2022-09-15T12:09:01.911Z,7.00
2022-09-15T12:11:40.662Z,6.38
2022-09-15T12:14:16.390Z,7.80
2022-09-15T12:16:44.977Z,6.75
2022-09-15T12:19:38.393Z,6.43
2022-09-15T12:22:42.649Z,7.90
2022-09-15T12:25:22.504Z,7.35
2022-09-15T12:28:24.002Z,6.10
2022-09-15T12:31:15.116Z,6.22
2022-09-15T12:33:42.418Z,7.93
2022-09-15T12:36:34.143Z,8.75
2022-09-15T12:41:32.934Z,9.23
2022-09-15T12:44:35.056Z,7.80
2022-09-15T12:47:07.592Z,5.72
2022-09-15T12:49:45.036Z,9.68
2022-09-15T12:52:13.693Z,7.25
2022-09-15T12:54:50.480Z,8.23
2022-09-15T12:57:32.433Z,5.60
2022-09-15T13:00:22.488Z,8.25
2022-09-15T13:02:51.740Z,10.05
2022-09-15T13:05:54.218Z,7.55
2022-09-15T13:08:24.494Z,9.32
2022-09-15T13:11:26.234Z,6.95
2022-09-15T13:14:11.078Z,4.93
2022-09-15T13:16:41.124Z,5.05
2022-09-15T13:19:41.306Z,6.00
2022-09-15T13:22:11.594Z,4.55
2022-09-15T13:25:10.732Z,6.00
2022-09-15T13:27:55.091Z,5.22
2022-09-15T13:31:08.690Z,5.75
2022-09-15T13:38:13.563Z,5.32
2022-09-15T13:41:16.451Z,9.52
2022-09-15T13:44:47.894Z,5.00
2022-09-15T13:47:24.356Z,7.77
2022-09-15T13:50:10.699Z,6.60
2022-09-15T13:53:22.230Z,6.68
2022-09-15T13:55:51.741Z,4.30
2022-09-15T14:01:14.298Z,5.20
2022-09-15T14:03:56.717Z,3.72
2022-09-15T14:06:36.717Z,6.15
2022-09-15T14:09:40.762Z,7.85
2022-09-15T14:12:13.346Z,6.28
2022-09-15T14:14:51.412Z,7.05
2022-09-15T14:17:28.733Z,6.35
2022-09-15T14:20:00.313Z,6.53
2022-09-15T14:22:32.302Z,7.72
2022-09-15T14:25:14.632Z,6.22
2022-09-15T14:27:46.654Z,7.35
2022-09-15T14:30:31.218Z,5.88
2022-09-15T14:33:02.090Z,7.30
2022-09-15T14:35:36.160Z,12.85
2022-09-15T14:38:03.628Z,7.22
2022-09-15T14:40:39.426Z,5.05
2022-09-15T14:43:36.439Z,6.38
2022-09-15T14:46:12.034Z,5.07
2022-09-15T14:48:40.438Z,5.20
2022-09-15T14:51:32.947Z,3.85
2022-09-15T14:54:03.132Z,4.97
2022-09-15T14:56:37.624Z,8.48
2022-09-15T14:59:19.188Z,7.53
2022-09-15T15:02:16.937Z,6.60
2022-09-15T15:05:16.629Z,5.07
2022-09-15T15:07:44.571Z,6.15
2022-09-15T15:10:23.405Z,4.88
2022-09-15T15:12:56.237Z,3.97
2022-09-15T15:15:23.963Z,7.03
2022-09-15T15:17:54.616Z,5.07
2022-09-15T15:20:27.468Z,7.15
2022-09-15T15:23:23.615Z,4.68
2022-09-15T15:25:52.172Z,5.25
2022-09-15T15:28:37.776Z,5.97
2022-09-15T15:31:18.306Z,5.53
2022-09-15T15:33:56.782Z,6.85
2022-09-15T15:36:27.253Z,4.95
2022-09-15T15:38:59.240Z,5.18
2022-09-15T15:41:31.231Z,5.53
2022-09-15T15:44:26.500Z,9.45
2022-09-15T15:47:22.750Z,5.22
2022-09-15T15:50:12.176Z,7.88
2022-09-15T15:52:41.243Z,6.95
2022-09-15T15:55:14.835Z,8.13
2022-09-15T15:57:43.369Z,6.80
2022-09-15T16:00:23.119Z,7.50
2022-09-15T16:02:52.013Z,6.85
2022-09-15T16:05:22.112Z,7.65
2022-09-15T16:07:52.353Z,8.60
2022-09-15T16:10:27.941Z,7.28
2022-09-15T16:12:56.206Z,7.13
2022-09-15T16:15:23.632Z,7.40
2022-09-15T16:17:51.005Z,5.95
2022-09-15T16:20:19.752Z,6.72
2022-09-15T16:22:47.234Z,6.43
2022-09-15T16:25:38.785Z,8.32
2022-09-15T16:28:06.573Z,8.88
2022-09-15T16:30:34.336Z,6.20
2022-09-15T16:33:01.977Z,7.15
2022-09-15T16:35:45.632Z,5.82
2022-09-15T16:38:12.984Z,6.97
2022-09-15T16:40:40.315Z,6.78
2022-09-15T16:43:15.104Z,9.00
2022-09-15T16:45:43.972Z,6.47
2022-09-15T16:48:12.672Z,8.07
2022-09-15T16:50:50.137Z,5.95
2022-09-15T16:53:31.031Z,4.15
2022-09-15T16:55:58.660Z,10.07
2022-09-15T16:58:26.395Z,5.40
2022-09-15T17:00:53.846Z,5.38
2022-09-15T17:03:24.256Z,6.47
2022-09-15T17:05:55.146Z,8.02
2022-09-15T17:08:28.642Z,5.50
2022-09-15T17:11:02.320Z,4.18
2022-09-15T17:13:33.749Z,8.00
2022-09-15T17:16:02.014Z,6.90
2022-09-15T17:18:29.828Z,5.38
2022-09-15T17:20:57.542Z,6.38
2022-09-15T17:23:35.329Z,8.68
2022-09-15T17:26:10.473Z,7.70
2022-09-15T17:28:38.221Z,7.03
2022-09-15T17:31:14.776Z,9.43
2022-09-15T17:33:43.316Z,6.88
2022-09-15T17:36:11.218Z,7.57
2022-09-15T17:38:41.254Z,5.00
2022-09-15T17:41:20.723Z,7.95
2022-09-15T17:43:49.410Z,6.45
2022-09-15T17:46:18.877Z,6.90
2022-09-15T17:48:46.489Z,7.25
2022-09-15T17:51:17.359Z,6.57
2022-09-15T17:53:47.707Z,10.70
2022-09-15T17:56:15.303Z,6.45
2022-09-15T17:58:43.720Z,8.75
2022-09-15T18:01:15.535Z,5.72
2022-09-15T18:03:44.961Z,9.18
2022-09-15T18:06:12.896Z,7.78
2022-09-15T18:08:40.744Z,6.18
2022-09-15T18:11:08.313Z,5.10
2022-09-15T18:13:37.769Z,9.48
2022-09-15T18:16:11.223Z,8.27
2022-09-15T18:18:40.349Z,8.55
2022-09-15T18:21:15.913Z,10.55
2022-09-15T18:23:44.979Z,6.45
2022-09-15T18:26:12.335Z,5.43
2022-09-15T18:28:39.662Z,7.68
2022-09-15T18:31:07.313Z,9.05
2022-09-15T18:33:34.703Z,5.43
2022-09-15T18:36:02.382Z,5.32
2022-09-15T18:38:29.769Z,6.70
2022-09-15T18:40:57.609Z,7.45
2022-09-15T18:43:27.763Z,6.68
2022-09-15T18:46:00.962Z,8.90
2022-09-15T18:48:29.168Z,5.18
2022-09-15T18:50:56.722Z,6.63
2022-09-15T18:53:24.977Z,6.47
2022-09-15T18:55:52.382Z,5.70
2022-09-15T18:58:19.802Z,7.88
2022-09-15T19:00:47.194Z,6.10
2022-09-15T19:03:14.546Z,5.95
2022-09-15T19:05:42.139Z,6.30
2022-09-15T19:08:11.248Z,7.90
2022-09-15T19:10:41.428Z,3.85
2022-09-15T19:13:11.197Z,4.22
2022-09-15T19:15:43.705Z,5.00
2022-09-15T19:18:11.513Z,6.25
2022-09-15T19:20:40.115Z,4.95
2022-09-15T19:23:09.036Z,4.28
2022-09-15T19:25:37.330Z,5.25
2022-09-15T19:28:04.942Z,4.55
2022-09-15T19:30:32.379Z,6.13
2022-09-15T19:32:59.960Z,5.13
2022-09-15T19:35:27.420Z,5.03
2022-09-15T19:37:54.933Z,4.95
2022-09-15T19:40:23.750Z,7.18
2022-09-15T19:42:51.217Z,7.55
2022-09-15T19:45:18.676Z,9.82
2022-09-15T19:47:46.087Z,7.22
2022-09-15T19:50:13.465Z,6.75
2022-09-15T19:52:40.850Z,6.88
2022-09-15T19:55:10.154Z,8.32
2022-09-15T19:57:40.364Z,7.68
2022-09-15T20:00:11.277Z,7.97
2022-09-15T20:02:39.386Z,7.50
2022-09-15T20:05:07.877Z,5.57
2022-09-15T20:07:36.865Z,6.32
2022-09-15T20:10:05.304Z,4.63
2022-09-15T20:12:32.885Z,5.60
2022-09-15T20:15:00.280Z,7.40
2022-09-15T20:17:27.845Z,5.55
2022-09-15T20:19:55.248Z,4.82
2022-09-15T20:22:23.575Z,5.22
2022-09-15T20:24:51.604Z,5.13
2022-09-15T20:27:18.944Z,4.20
2022-09-15T20:29:46.272Z,5.38
2022-09-15T20:32:13.661Z,3.17
2022-09-15T20:34:41.003Z,5.22
2022-09-15T20:37:08.536Z,5.80
2022-09-15T20:39:35.877Z,3.17
2022-09-15T20:42:03.398Z,3.75
2022-09-15T20:44:30.732Z,4.07
2022-09-15T20:46:58.115Z,3.78
2022-09-15T20:49:25.463Z,4.47
2022-09-15T20:51:52.929Z,5.63
2022-09-15T20:54:20.468Z,7.15
2022-09-15T20:56:47.863Z,4.10
2022-09-15T20:59:15.389Z,6.00
2022-09-15T21:01:43.533Z,6.82
2022-09-15T21:04:11.428Z,5.25
2022-09-15T21:06:39.117Z,3.70
2022-09-15T21:09:07.853Z,4.78
2022-09-15T21:11:35.516Z,3.17
2022-09-15T21:14:04.000Z,4.93
2022-09-15T21:16:33.640Z,6.07
2022-09-15T21:19:01.478Z,6.70
2022-09-15T21:21:32.872Z,6.90
2022-09-15T21:24:04.259Z,4.95
2022-09-15T21:26:59.096Z,5.03
2022-09-15T21:29:28.490Z,5.57
2022-09-15T21:31:56.004Z,7.90
2022-09-15T21:34:23.931Z,5.07
2022-09-15T21:36:53.477Z,4.80
2022-09-15T21:39:21.329Z,6.85
2022-09-15T21:41:49.710Z,7.53
2022-09-15T21:44:17.066Z,7.20
2022-09-15T21:46:46.827Z,4.22
2022-09-15T21:49:14.620Z,14.57
2022-09-15T21:51:42.001Z,6.72
2022-09-15T21:54:10.186Z,7.82
2022-09-15T21:56:37.561Z,6.90
2022-09-15T21:59:05.824Z,8.23
2022-09-15T22:01:33.377Z,10.45
2022-09-15T22:04:04.604Z,7.45
2022-09-15T22:06:40.141Z,6.45
2022-09-15T22:09:14.377Z,6.85
2022-09-15T22:11:42.167Z,10.30
2022-09-15T22:14:10.547Z,8.52
2022-09-15T22:16:40.645Z,9.15
2022-09-15T22:19:11.527Z,8.70
2022-09-15T22:21:41.659Z,6.20
2022-09-15T22:24:13.393Z,8.90
2022-09-15T22:26:42.737Z,6.68
2022-09-15T22:29:10.544Z,8.75
2022-09-15T22:31:38.782Z,5.63
2022-09-15T22:34:11.003Z,7.00
2022-09-15T22:36:38.426Z,11.55
2022-09-15T22:39:06.340Z,8.55
2022-09-15T22:41:38.106Z,4.78
2022-09-15T22:46:34.583Z,8.13
2022-09-15T22:49:02.313Z,7.55
2022-09-15T22:51:29.766Z,7.63
2022-09-15T22:53:58.435Z,6.10
2022-09-15T22:56:26.629Z,8.13
2022-09-15T22:58:56.270Z,9.13
2022-09-15T23:01:28.032Z,6.55
2022-09-15T23:04:00.199Z,7.15
2022-09-15T23:06:33.599Z,6.43
2022-09-15T23:09:09.443Z,7.65
2022-09-15T23:11:42.155Z,8.93
2022-09-15T23:14:15.878Z,5.80
2022-09-15T23:16:44.307Z,5.60
2022-09-15T23:19:13.319Z,6.80
2022-09-15T23:21:40.718Z,6.80
2022-09-15T23:24:08.676Z,6.45
2022-09-15T23:26:36.553Z,6.03
2022-09-15T23:29:03.976Z,8.38
2022-09-15T23:31:31.416Z,5.82
2022-09-15T23:33:58.826Z,7.70
2022-09-15T23:36:26.190Z,8.70
2022-09-15T23:38:53.667Z,6.25
2022-09-15T23:41:21.218Z,5.88
2022-09-15T23:43:48.602Z,4.93
2022-09-15T23:46:16.569Z,8.50
2022-09-15T23:48:44.004Z,8.10
2022-09-15T23:51:11.405Z,8.07
2022-09-15T23:53:38.923Z,10.80
2022-09-15T23:56:06.821Z,8.57
2022-09-15T23:58:34.196Z,4.85
